Time;durP1;ratioP1;P1;durP2;ratioP2;P2;SDS_P1;SDS_P2;PMS_P1;PMS_P2;Temp;Humidity;BMP_temperature;BMP_pressure;BME280_temperature;BME280_humidity;BME280_pressure;Samples;Min_cycle;Max_cycle;Signal;HPM_P1;HPM_P2
2020/12/12 00:00:27;;;;;;;16.33;8.82;;;8.50;59.20;;;;;;5058968;28;20025;-75
2020/12/12 00:02:53;;;;;;;13.40;8.40;;;8.50;59.20;;;;;;5052637;28;20040;-75
2020/12/12 00:05:18;;;;;;;13.13;8.55;;;8.50;59.10;;;;;;5053214;28;20032;-75
2020/12/12 00:07:44;;;;;;;15.80;9.68;;;8.40;59.10;;;;;;5053476;28;20428;-75
2020/12/12 00:10:10;;;;;;;15.65;9.07;;;8.40;59.20;;;;;;5052526;28;20047;-75
2020/12/12 00:12:36;;;;;;;14.45;9.27;;;8.40;59.20;;;;;;5040645;28;20029;-75
2020/12/12 00:15:03;;;;;;;16.15;9.73;;;8.40;59.20;;;;;;5048182;28;20029;-75
2020/12/12 00:17:29;;;;;;;16.27;9.13;;;8.40;59.30;;;;;;5062220;28;20025;-75
2020/12/12 00:19:55;;;;;;;20.75;10.75;;;8.40;59.30;;;;;;5052532;28;20032;-75
2020/12/12 00:22:20;;;;;;;11.93;7.78;;;8.30;59.30;;;;;;5058134;28;20063;-75
2020/12/12 00:24:46;;;;;;;14.68;8.85;;;8.30;59.30;;;;;;5058758;28;20045;-76
2020/12/12 00:27:12;;;;;;;12.80;8.07;;;8.40;59.40;;;;;;5051163;28;20022;-75
2020/12/12 00:29:38;;;;;;;11.63;7.85;;;8.30;59.40;;;;;;5048007;28;20514;-75
2020/12/12 00:32:03;;;;;;;13.30;8.70;;;8.30;59.40;;;;;;5040699;28;20021;-75
2020/12/12 00:34:31;;;;;;;15.13;7.93;;;8.30;59.40;;;;;;5055764;28;20045;-75
2020/12/12 00:36:57;;;;;;;10.77;6.90;;;8.40;59.30;;;;;;5066861;28;20017;-75
2020/12/12 00:39:23;;;;;;;14.35;8.05;;;8.40;59.30;;;;;;5057321;28;20478;-75
2020/12/12 00:41:51;;;;;;;13.10;7.95;;;8.40;59.30;;;;;;5050186;28;20030;-75
2020/12/12 00:44:18;;;;;;;11.55;6.88;;;8.40;59.30;;;;;;5044127;28;20033;-75
2020/12/12 00:46:44;;;;;;;13.25;7.97;;;8.40;59.30;;;;;;5041317;28;20029;-75
2020/12/12 00:49:11;;;;;;;16.42;9.35;;;8.40;59.30;;;;;;5053285;28;20532;-75
2020/12/12 00:51:37;;;;;;;15.60;8.35;;;8.50;59.40;;;;;;5046667;28;20071;-75
2020/12/12 00:54:03;;;;;;;14.70;8.45;;;8.50;59.40;;;;;;5055684;28;20055;-74
2020/12/12 00:56:29;;;;;;;20.92;8.75;;;8.50;59.30;;;;;;5055504;28;20541;-75
2020/12/12 00:58:55;;;;;;;12.63;7.57;;;8.50;59.20;;;;;;5055376;28;20037;-75
2020/12/12 01:01:21;;;;;;;13.48;7.90;;;8.50;59.20;;;;;;5058589;28;20021;-75
2020/12/12 01:03:48;;;;;;;12.13;7.47;;;8.50;59.10;;;;;;5063199;28;20029;-75
2020/12/12 01:06:16;;;;;;;10.10;6.72;;;8.50;59.10;;;;;;5058025;28;20055;-75
2020/12/12 01:08:42;;;;;;;15.07;9.52;;;8.60;59.20;;;;;;5062849;28;20021;-75
2020/12/12 01:11:10;;;;;;;11.80;7.35;;;8.50;59.10;;;;;;5057545;28;20029;-75
2020/12/12 01:13:35;;;;;;;12.18;7.43;;;8.60;59.20;;;;;;5039069;28;20474;-75
2020/12/12 01:16:15;;;;;;;11.23;7.45;;;8.60;59.20;;;;;;5055244;28;20060;-75
2020/12/12 01:18:41;;;;;;;11.70;7.53;;;8.60;59.20;;;;;;5053914;28;20029;-74
2020/12/12 01:21:13;;;;;;;14.18;8.73;;;8.60;59.20;;;;;;5049862;28;20540;-75
2020/12/12 01:23:39;;;;;;;12.10;7.97;;;8.60;59.20;;;;;;5042492;28;20044;-75
2020/12/12 01:26:05;;;;;;;12.25;7.82;;;8.70;59.20;;;;;;5055106;28;20025;-75
2020/12/12 01:28:31;;;;;;;12.25;8.30;;;8.60;59.10;;;;;;5054922;28;20024;-75
2020/12/12 01:30:56;;;;;;;12.65;8.05;;;8.60;59.10;;;;;;5045259;28;20074;-75
2020/12/12 01:33:22;;;;;;;11.07;7.25;;;8.60;59.00;;;;;;5054752;28;20025;-75
2020/12/12 01:35:48;;;;;;;14.75;8.90;;;8.70;59.00;;;;;;5049379;28;20148;-75
2020/12/12 01:38:15;;;;;;;15.10;9.25;;;8.70;59.00;;;;;;5055478;28;20120;-75
2020/12/12 01:40:42;;;;;;;14.73;8.60;;;8.70;59.00;;;;;;5066069;28;20028;-75
2020/12/12 01:43:11;;;;;;;13.25;8.13;;;8.60;58.90;;;;;;5058262;28;20025;-75
2020/12/12 01:45:40;;;;;;;13.55;8.93;;;8.60;58.90;;;;;;5038758;28;20458;-75
2020/12/12 01:48:07;;;;;;;13.85;8.82;;;8.60;58.90;;;;;;5054679;28;20162;-75
2020/12/12 01:50:35;;;;;;;13.88;8.93;;;8.60;59.00;;;;;;5042735;28;20031;-75
2020/12/12 01:53:01;;;;;;;16.17;9.85;;;8.60;59.10;;;;;;5051046;28;20036;-75
2020/12/12 01:55:29;;;;;;;14.80;9.88;;;8.60;59.00;;;;;;5054607;28;20032;-75
2020/12/12 01:57:55;;;;;;;15.60;9.40;;;8.50;59.00;;;;;;5054447;28;20347;-75
2020/12/12 02:00:24;;;;;;;11.02;7.63;;;8.50;59.10;;;;;;5054203;28;20071;-75
2020/12/12 02:02:53;;;;;;;18.42;10.75;;;8.50;59.10;;;;;;5055027;28;20060;-75
2020/12/12 02:05:43;;;;;;;12.73;8.52;;;8.50;59.10;;;;;;5052802;28;20028;-75
2020/12/12 02:08:10;;;;;;;15.50;9.25;;;8.50;59.10;;;;;;5042849;28;20037;-75
2020/12/12 02:10:37;;;;;;;15.75;9.13;;;8.50;59.10;;;;;;5046780;28;20021;-75
2020/12/12 02:13:05;;;;;;;14.63;8.98;;;8.50;59.00;;;;;;5052826;28;20033;-74
2020/12/12 02:15:31;;;;;;;14.63;9.00;;;8.50;59.00;;;;;;5053057;28;20064;-75
2020/12/12 02:17:57;;;;;;;13.98;8.15;;;8.60;59.10;;;;;;5047403;28;20382;-74
2020/12/12 02:20:24;;;;;;;13.80;8.63;;;8.60;59.10;;;;;;5044197;28;20021;-75
2020/12/12 02:22:50;;;;;;;14.48;9.05;;;8.60;59.10;;;;;;5056754;28;20078;-74
2020/12/12 02:25:16;;;;;;;16.30;10.15;;;8.60;59.00;;;;;;5052693;28;20048;-74
2020/12/12 02:27:41;;;;;;;14.57;9.80;;;8.60;58.90;;;;;;5038583;28;20021;-75
2020/12/12 02:30:07;;;;;;;17.38;10.23;;;8.60;58.90;;;;;;5053736;28;20025;-75
2020/12/12 02:32:34;;;;;;;16.05;9.63;;;8.60;58.80;;;;;;5053641;28;20029;-75
2020/12/12 02:35:00;;;;;;;14.80;9.38;;;8.60;58.90;;;;;;5047312;28;20033;-75
2020/12/12 02:37:26;;;;;;;17.70;10.73;;;8.60;59.00;;;;;;5054767;28;20479;-74
2020/12/12 02:39:52;;;;;;;17.55;10.85;;;8.60;58.90;;;;;;5053628;28;20029;-75
2020/12/12 02:42:18;;;;;;;17.85;10.82;;;8.60;58.90;;;;;;5043914;28;20158;-75
2020/12/12 02:44:44;;;;;;;19.40;11.20;;;8.60;58.90;;;;;;5045425;28;20029;-74
2020/12/12 02:47:10;;;;;;;17.58;10.25;;;8.60;58.90;;;;;;5052515;28;20021;-74
2020/12/12 02:49:35;;;;;;;14.50;9.43;;;8.60;58.90;;;;;;5068173;28;20025;-74
2020/12/12 02:52:01;;;;;;;16.83;10.40;;;8.60;58.90;;;;;;5052560;28;20025;-74
2020/12/12 02:54:27;;;;;;;20.27;12.00;;;8.60;58.90;;;;;;5052092;28;20025;-75
2020/12/12 02:56:53;;;;;;;17.15;10.30;;;8.60;58.80;;;;;;5053567;28;20032;-74
2020/12/12 02:59:19;;;;;;;19.80;10.15;;;8.60;58.80;;;;;;5053033;28;20086;-74
2020/12/12 03:01:44;;;;;;;14.90;9.15;;;8.60;58.80;;;;;;5053740;28;20025;-75
2020/12/12 03:04:10;;;;;;;18.38;11.35;;;8.60;58.80;;;;;;5053688;28;20029;-75
2020/12/12 03:06:38;;;;;;;21.35;13.70;;;8.60;58.70;;;;;;5053564;28;20101;-75
2020/12/12 03:09:04;;;;;;;22.08;13.18;;;8.60;58.70;;;;;;5056363;28;20095;-74
2020/12/12 03:11:30;;;;;;;19.17;11.10;;;8.60;58.60;;;;;;5073528;28;20028;-74
2020/12/12 03:13:56;;;;;;;14.98;9.85;;;8.60;58.60;;;;;;5073155;28;20024;-74
2020/12/12 03:16:22;;;;;;;21.38;12.63;;;8.60;58.70;;;;;;5073468;28;20028;-75
2020/12/12 03:18:48;;;;;;;21.83;12.95;;;8.60;58.70;;;;;;5073416;28;20489;-74
2020/12/12 03:21:14;;;;;;;22.17;12.88;;;8.60;58.70;;;;;;5072169;28;20055;-75
2020/12/12 03:23:39;;;;;;;18.70;11.80;;;8.60;58.60;;;;;;5073443;28;20109;-74
2020/12/12 03:26:05;;;;;;;21.15;12.20;;;8.60;58.70;;;;;;5073719;28;20030;-75
2020/12/12 03:28:31;;;;;;;22.90;13.35;;;8.60;58.60;;;;;;5065516;28;20029;-75
2020/12/12 03:30:57;;;;;;;18.42;11.35;;;8.60;58.60;;;;;;5052035;28;20032;-74
2020/12/12 03:33:22;;;;;;;19.38;12.35;;;8.50;58.60;;;;;;5053480;28;20078;-75
2020/12/12 03:35:48;;;;;;;19.45;12.32;;;8.50;59.10;;;;;;5052184;28;20502;-74
2020/12/12 03:38:14;;;;;;;21.17;12.52;;;8.50;58.60;;;;;;5066187;28;20028;-74
2020/12/12 03:40:40;;;;;;;20.13;12.80;;;8.50;58.60;;;;;;5073513;28;20071;-74
2020/12/12 03:43:06;;;;;;;22.15;12.90;;;8.50;58.60;;;;;;5073220;28;20029;-75
2020/12/12 03:45:32;;;;;;;20.23;12.40;;;8.50;58.60;;;;;;5073794;28;20025;-74
2020/12/12 03:47:57;;;;;;;18.08;11.73;;;8.50;58.60;;;;;;5073207;28;20025;-74
2020/12/12 03:50:27;;;;;;;17.15;10.95;;;8.50;58.70;;;;;;5073470;28;20099;-74
2020/12/12 03:52:55;;;;;;;18.20;11.02;;;8.50;58.70;;;;;;5054268;28;20558;-74
2020/12/12 03:55:20;;;;;;;16.02;10.15;;;8.50;58.70;;;;;;5038316;28;20406;-75
2020/12/12 03:57:46;;;;;;;16.00;10.43;;;8.50;58.70;;;;;;5033359;28;20017;-75
2020/12/12 04:00:12;;;;;;;19.88;11.52;;;8.50;58.70;;;;;;5033095;28;20025;-75
2020/12/12 04:02:37;;;;;;;15.98;10.45;;;8.50;58.70;;;;;;5033128;28;20104;-75
2020/12/12 04:05:03;;;;;;;18.23;12.05;;;8.60;58.80;;;;;;5033086;28;20021;-75
2020/12/12 04:07:29;;;;;;;20.42;12.40;;;8.60;58.70;;;;;;5034851;28;20029;-75
2020/12/12 04:09:55;;;;;;;17.40;12.23;;;8.60;58.70;;;;;;5055341;28;20035;-75
2020/12/12 04:12:20;;;;;;;19.50;12.65;;;8.60;58.70;;;;;;5056720;28;20029;-75
2020/12/12 04:14:46;;;;;;;25.23;13.90;;;8.60;58.60;;;;;;5056709;28;20410;-75
2020/12/12 04:17:12;;;;;;;20.15;12.52;;;8.60;58.50;;;;;;5056693;28;20079;-75
2020/12/12 04:19:37;;;;;;;22.52;11.65;;;8.60;58.50;;;;;;5056668;28;20017;-75
2020/12/12 04:22:03;;;;;;;20.67;12.73;;;8.60;58.50;;;;;;5055301;28;20508;-75
2020/12/12 04:24:29;;;;;;;18.80;12.95;;;8.60;58.60;;;;;;5056382;28;20049;-75
2020/12/12 04:26:55;;;;;;;21.92;13.55;;;8.60;58.60;;;;;;5056612;28;20025;-75
2020/12/12 04:29:21;;;;;;;21.95;13.38;;;8.60;58.50;;;;;;5056458;28;20036;-75
2020/12/12 04:31:47;;;;;;;22.90;13.18;;;8.50;58.50;;;;;;5056366;28;20025;-75
2020/12/12 04:34:13;;;;;;;19.10;11.63;;;8.50;58.50;;;;;;5056352;28;20087;-75
2020/12/12 04:36:39;;;;;;;21.05;12.95;;;8.50;58.50;;;;;;5072871;28;20385;-75
2020/12/12 04:39:05;;;;;;;18.45;11.23;;;8.50;58.60;;;;;;5075931;28;20024;-75
2020/12/12 04:41:34;;;;;;;20.85;12.40;;;8.50;58.60;;;;;;5074957;28;20025;-75
2020/12/12 04:44:00;;;;;;;29.10;16.55;;;8.50;58.60;;;;;;5063894;28;20402;-75
2020/12/12 04:46:27;;;;;;;33.70;16.30;;;8.60;58.60;;;;;;5053134;28;20021;-75
2020/12/12 04:48:53;;;;;;;24.60;14.90;;;8.60;58.50;;;;;;5054498;28;20152;-75
2020/12/12 04:51:19;;;;;;;32.03;15.77;;;8.50;58.50;;;;;;5055743;28;20108;-75
2020/12/12 04:53:45;;;;;;;23.55;13.07;;;8.50;58.40;;;;;;5054592;28;20029;-75
2020/12/12 04:56:21;;;;;;;24.45;14.88;;;8.50;58.40;;;;;;5061422;28;20024;-75
2020/12/12 04:58:49;;;;;;;23.60;13.10;;;8.50;58.50;;;;;;5074635;28;20063;-75
2020/12/12 05:01:18;;;;;;;18.67;11.57;;;8.50;58.60;;;;;;5075823;28;20024;-75
2020/12/12 05:03:44;;;;;;;23.33;13.77;;;8.50;58.60;;;;;;5075801;28;20035;-75
2020/12/12 05:06:10;;;;;;;22.77;13.65;;;8.50;58.60;;;;;;5054405;28;20040;-75
2020/12/12 05:08:36;;;;;;;17.63;10.98;;;8.50;58.60;;;;;;5067054;28;20024;-75
2020/12/12 05:11:03;;;;;;;19.58;12.13;;;8.50;58.60;;;;;;5074713;28;20029;-75
2020/12/12 05:13:30;;;;;;;19.95;12.57;;;8.50;58.60;;;;;;5073766;28;20413;-75
2020/12/12 05:15:57;;;;;;;17.20;11.27;;;8.50;58.60;;;;;;5064931;28;20027;-75
2020/12/12 05:18:24;;;;;;;20.83;13.30;;;8.50;58.50;;;;;;5055193;28;20079;-75
2020/12/12 05:20:50;;;;;;;18.23;12.32;;;8.50;58.40;;;;;;5055527;28;20449;-75
2020/12/12 05:23:18;;;;;;;19.25;12.63;;;8.50;58.40;;;;;;5055289;28;20022;-76
2020/12/12 05:25:45;;;;;;;20.73;12.93;;;8.50;58.30;;;;;;5055327;28;20428;-75
2020/12/12 05:28:13;;;;;;;19.30;12.93;;;8.50;58.30;;;;;;5054126;28;20025;-75
2020/12/12 05:30:41;;;;;;;19.45;13.05;;;8.50;58.30;;;;;;5055319;28;20051;-75
2020/12/12 05:33:10;;;;;;;18.73;12.38;;;8.50;58.30;;;;;;5054032;28;20137;-75
2020/12/12 05:35:36;;;;;;;18.50;12.38;;;8.50;58.30;;;;;;5055314;28;20017;-75
2020/12/12 05:38:04;;;;;;;22.10;13.85;;;8.50;58.20;;;;;;5055380;28;20535;-75
2020/12/12 05:40:30;;;;;;;21.55;13.45;;;8.50;58.30;;;;;;5061801;28;20103;-75
2020/12/12 05:42:59;;;;;;;21.20;14.50;;;8.50;58.10;;;;;;5075083;28;20032;-75
2020/12/12 05:45:25;;;;;;;20.38;13.15;;;8.50;58.00;;;;;;5075305;28;20017;-75
2020/12/12 05:47:51;;;;;;;18.02;12.73;;;8.50;58.00;;;;;;5075227;28;20051;-75
2020/12/12 05:50:17;;;;;;;18.70;11.93;;;8.50;58.00;;;;;;5074930;28;20107;-75
2020/12/12 05:52:42;;;;;;;18.30;11.23;;;8.50;57.70;;;;;;5072389;28;20017;-75
2020/12/12 05:55:09;;;;;;;17.77;11.90;;;8.50;57.80;;;;;;5055451;28;20017;-75
2020/12/12 05:57:36;;;;;;;21.25;12.45;;;8.50;57.70;;;;;;5054688;28;20105;-75
2020/12/12 06:00:06;;;;;;;20.35;12.65;;;8.50;57.70;;;;;;5054718;28;20108;-75
2020/12/12 06:02:36;;;;;;;19.60;12.73;;;8.40;57.50;;;;;;5059431;28;20029;-75
2020/12/12 06:05:06;;;;;;;18.52;11.98;;;8.40;57.50;;;;;;5074324;28;20020;-75
2020/12/12 06:07:33;;;;;;;17.33;11.48;;;8.40;57.50;;;;;;5074815;28;20070;-75
2020/12/12 06:10:03;;;;;;;16.05;10.65;;;8.40;57.60;;;;;;5074479;28;20037;-75
2020/12/12 06:12:29;;;;;;;16.95;11.48;;;8.40;57.70;;;;;;5074373;28;20436;-75
2020/12/12 06:14:57;;;;;;;14.40;9.73;;;8.40;57.90;;;;;;5074435;28;20039;-75
2020/12/12 06:17:37;;;;;;;14.52;10.07;;;8.40;57.90;;;;;;5074654;28;20047;-75
2020/12/12 06:20:05;;;;;;;16.08;11.15;;;8.40;58.00;;;;;;5039988;28;20025;-75
2020/12/12 06:22:32;;;;;;;19.35;12.20;;;8.40;58.00;;;;;;5062965;28;20064;-75
2020/12/12 06:25:03;;;;;;;17.55;11.25;;;8.40;58.00;;;;;;5061137;28;20041;-75
2020/12/12 06:27:42;;;;;;;20.67;13.32;;;8.40;57.90;;;;;;5054151;28;20033;-75
2020/12/12 06:30:13;;;;;;;18.95;12.35;;;8.40;57.90;;;;;;5053393;28;20035;-75
2020/12/12 06:32:41;;;;;;;23.65;12.70;;;8.40;57.90;;;;;;5054298;28;20128;-75
2020/12/12 06:35:07;;;;;;;20.02;11.63;;;8.30;57.90;;;;;;5054348;28;20374;-75
2020/12/12 06:37:33;;;;;;;20.27;12.77;;;8.30;57.90;;;;;;5052787;28;20025;-75
2020/12/12 06:40:01;;;;;;;19.88;12.75;;;8.30;57.90;;;;;;5053996;28;20443;-75
2020/12/12 06:42:37;;;;;;;18.08;11.68;;;8.30;57.90;;;;;;5054236;28;20086;-75
2020/12/12 06:45:20;;;;;;;19.48;11.93;;;8.30;58.00;;;;;;5052688;28;20021;-76
2020/12/12 06:47:51;;;;;;;19.30;12.75;;;8.30;58.10;;;;;;5054178;28;20025;-75
2020/12/12 06:50:21;;;;;;;22.30;12.15;;;8.30;58.20;;;;;;5061781;28;20036;-75
2020/12/12 06:52:49;;;;;;;18.10;12.15;;;8.30;58.10;;;;;;5068757;28;20032;-75
2020/12/12 06:55:19;;;;;;;14.88;10.23;;;8.30;58.20;;;;;;5054043;28;20036;-75
2020/12/12 06:57:47;;;;;;;20.83;13.30;;;8.30;58.20;;;;;;5053665;28;20066;-75
2020/12/12 07:00:29;;;;;;;19.63;12.27;;;8.30;58.20;;;;;;5053948;28;20131;-75
2020/12/12 07:03:01;;;;;;;21.13;12.32;;;8.30;58.20;;;;;;5069135;28;20036;-75
2020/12/12 07:05:32;;;;;;;17.02;11.45;;;8.40;58.20;;;;;;5053664;28;20017;-74
2020/12/12 07:08:03;;;;;;;17.17;11.27;;;8.40;58.20;;;;;;5053588;28;20025;-75
2020/12/12 07:10:30;;;;;;;17.08;11.45;;;8.40;58.10;;;;;;5053547;28;20029;-75
2020/12/12 07:12:58;;;;;;;21.30;12.70;;;8.40;58.10;;;;;;5052158;28;20029;-75
2020/12/12 07:15:30;;;;;;;15.85;10.88;;;8.40;57.80;;;;;;5053478;28;20047;-75
2020/12/12 07:18:09;;;;;;;16.17;11.00;;;8.40;57.90;;;;;;5053779;28;20092;-74
2020/12/12 07:20:49;;;;;;;17.92;12.38;;;8.40;57.90;;;;;;5052406;28;20071;-75
2020/12/12 07:23:17;;;;;;;16.25;10.55;;;8.40;57.80;;;;;;5071265;28;20051;-75
2020/12/12 07:25:44;;;;;;;16.77;11.40;;;8.40;57.70;;;;;;5073388;28;20039;-75
2020/12/12 07:28:10;;;;;;;14.27;10.18;;;8.40;57.70;;;;;;5073587;28;20024;-75
2020/12/12 07:30:36;;;;;;;17.25;9.95;;;8.40;57.70;;;;;;5073310;28;20021;-75
2020/12/12 07:33:02;;;;;;;17.73;11.73;;;8.40;57.70;;;;;;5073213;28;20025;-75
2020/12/12 07:35:30;;;;;;;16.80;11.25;;;8.50;57.70;;;;;;5072069;28;20032;-75
2020/12/12 07:38:05;;;;;;;19.40;12.40;;;8.40;57.70;;;;;;5073311;28;20028;-75
2020/12/12 07:40:33;;;;;;;18.00;11.80;;;8.50;57.80;;;;;;5073308;28;20428;-75
2020/12/12 07:43:02;;;;;;;17.33;12.00;;;8.50;57.80;;;;;;5077316;28;20485;-75
2020/12/12 07:48:12;;;;;;;16.75;11.18;;;8.50;57.60;;;;;;5077119;28;20048;-75
2020/12/12 07:50:38;;;;;;;21.02;13.25;;;8.40;57.70;;;;;;5063036;28;20386;-75
2020/12/12 07:53:13;;;;;;;16.50;11.05;;;8.40;57.80;;;;;;5066280;28;20473;-74
2020/12/12 07:55:43;;;;;;;17.95;12.63;;;8.40;57.80;;;;;;5075802;28;20428;-75
2020/12/12 07:58:27;;;;;;;16.65;11.20;;;8.50;58.00;;;;;;5076935;28;20021;-75
2020/12/12 08:01:02;;;;;;;17.23;11.57;;;8.50;57.80;;;;;;5077247;28;20465;-75
2020/12/12 08:03:28;;;;;;;15.82;11.38;;;8.50;57.90;;;;;;5076930;28;20063;-75
2020/12/12 08:06:08;;;;;;;18.15;11.90;;;8.50;57.90;;;;;;5076864;28;20020;-74
2020/12/12 08:08:35;;;;;;;17.58;11.35;;;8.50;57.90;;;;;;5076868;28;20028;-75
2020/12/12 08:11:02;;;;;;;15.05;9.85;;;8.60;58.00;;;;;;5077126;28;20070;-76
2020/12/12 08:13:29;;;;;;;20.27;10.77;;;8.60;57.90;;;;;;5076802;28;20100;-76
2020/12/12 08:16:37;;;;;;;17.67;11.98;;;8.60;58.00;;;;;;5076685;28;20390;-75
2020/12/12 08:19:04;;;;;;;18.95;12.32;;;8.70;57.70;;;;;;5075099;28;20078;-75
2020/12/12 08:21:30;;;;;;;16.65;11.23;;;8.70;57.50;;;;;;5049842;28;20025;-75
2020/12/12 08:23:56;;;;;;;15.68;11.27;;;8.80;57.50;;;;;;5058467;28;20052;-75
2020/12/12 08:26:23;;;;;;;15.05;10.45;;;8.80;57.40;;;;;;5056635;28;20032;-74
2020/12/12 08:28:49;;;;;;;14.15;10.15;;;8.80;57.30;;;;;;5056451;28;20052;-75
2020/12/12 08:31:17;;;;;;;15.05;10.15;;;8.80;57.20;;;;;;5055167;28;20029;-75
2020/12/12 08:33:45;;;;;;;15.05;9.93;;;8.90;57.30;;;;;;5056231;28;20415;-75
2020/12/12 08:36:16;;;;;;;14.13;9.68;;;9.00;56.90;;;;;;5056273;28;20044;-75
2020/12/12 08:38:50;;;;;;;12.70;8.98;;;9.00;56.80;;;;;;5056285;28;20028;-75
2020/12/12 08:41:16;;;;;;;14.18;9.45;;;9.10;57.00;;;;;;5055062;28;20033;-75
2020/12/12 08:43:43;;;;;;;14.10;9.18;;;9.10;57.00;;;;;;5056711;28;20382;-75
2020/12/12 08:46:12;;;;;;;13.75;9.48;;;9.20;56.70;;;;;;5056368;28;20033;-75
2020/12/12 08:48:38;;;;;;;12.45;7.75;;;9.30;56.60;;;;;;5071775;28;20359;-75
2020/12/12 08:51:06;;;;;;;11.80;7.45;;;9.30;56.40;;;;;;5072890;28;20082;-75
2020/12/12 08:53:38;;;;;;;12.68;8.20;;;9.40;56.30;;;;;;5056391;28;20438;-75
2020/12/12 08:56:06;;;;;;;12.88;9.35;;;9.40;55.90;;;;;;5055980;28;20067;-75
2020/12/12 08:58:36;;;;;;;13.07;9.15;;;9.50;55.40;;;;;;5055814;28;20067;-75
2020/12/12 09:01:28;;;;;;;12.25;8.23;;;9.50;55.10;;;;;;5055828;28;20097;-75
2020/12/12 09:04:04;;;;;;;29.42;11.63;;;9.50;55.10;;;;;;5039149;28;20040;-75
2020/12/12 09:06:34;;;;;;;38.53;18.42;;;9.50;55.10;;;;;;5055796;28;20100;-75
2020/12/12 09:09:19;;;;;;;33.97;17.00;;;9.60;55.00;;;;;;5055699;28;20021;-75
2020/12/12 09:11:58;;;;;;;36.95;19.80;;;9.60;54.90;;;;;;5055299;28;20021;-75
2020/12/12 09:14:25;;;;;;;24.48;15.30;;;9.60;54.80;;;;;;5055664;28;20501;-75
2020/12/12 09:16:56;;;;;;;16.67;9.00;;;9.60;54.70;;;;;;5055604;28;20106;-75
2020/12/12 09:19:23;;;;;;;17.00;10.90;;;9.70;54.40;;;;;;5055401;28;20105;-76
2020/12/12 09:21:49;;;;;;;19.90;12.35;;;9.70;54.60;;;;;;5056014;28;20025;-75
2020/12/12 09:24:18;;;;;;;20.98;10.32;;;9.70;53.90;;;;;;5059727;28;20123;-76
2020/12/12 09:26:44;;;;;;;13.38;7.30;;;9.70;53.60;;;;;;5075398;28;20051;-75
2020/12/12 09:29:10;;;;;;;11.73;7.10;;;9.80;53.50;;;;;;5074085;28;20051;-76
2020/12/12 09:31:36;;;;;;;16.80;7.95;;;9.80;53.50;;;;;;5075254;28;20024;-75
2020/12/12 09:34:02;;;;;;;19.63;9.32;;;9.80;53.60;;;;;;5073914;28;20029;-75
2020/12/12 09:36:28;;;;;;;10.57;7.60;;;9.90;53.30;;;;;;5075178;28;20048;-75
2020/12/12 09:38:54;;;;;;;10.10;6.97;;;9.90;52.90;;;;;;5075178;28;20071;-75
2020/12/12 09:41:19;;;;;;;9.38;6.95;;;9.90;52.50;;;;;;5075161;28;20355;-76
2020/12/12 09:43:45;;;;;;;10.95;6.93;;;9.90;52.00;;;;;;5075008;28;20107;-75
2020/12/12 09:46:11;;;;;;;8.70;5.30;;;9.90;52.20;;;;;;5073776;28;20063;-76
2020/12/12 09:48:38;;;;;;;11.95;7.43;;;10.00;52.60;;;;;;5074992;28;20020;-75
2020/12/12 09:51:05;;;;;;;10.60;7.45;;;10.00;52.40;;;;;;5058759;28;20109;-76
2020/12/12 09:53:31;;;;;;;15.63;8.18;;;10.00;52.40;;;;;;5066489;28;20412;-76
2020/12/12 09:55:57;;;;;;;19.77;8.90;;;10.10;52.70;;;;;;5074830;28;20031;-75
2020/12/12 09:58:24;;;;;;;18.08;9.70;;;10.20;52.40;;;;;;5073413;28;20081;-73
2020/12/12 10:00:50;;;;;;;15.30;7.65;;;10.30;52.50;;;;;;5074627;28;20021;-75
2020/12/12 10:03:18;;;;;;;13.48;7.55;;;10.30;52.20;;;;;;5073372;28;20052;-73
2020/12/12 10:05:44;;;;;;;16.02;9.20;;;10.40;52.30;;;;;;5073520;28;20027;-75
2020/12/12 10:08:10;;;;;;;23.38;13.00;;;10.50;52.30;;;;;;5074494;28;20489;-75
2020/12/12 10:10:36;;;;;;;31.85;16.80;;;10.60;52.20;;;;;;5074508;28;20036;-76
2020/12/12 10:13:01;;;;;;;23.58;12.60;;;10.60;52.00;;;;;;5074383;28;20308;-74
2020/12/12 10:15:28;;;;;;;15.43;10.00;;;10.70;51.80;;;;;;5074329;28;20020;-73
2020/12/12 10:17:54;;;;;;;18.90;8.32;;;10.70;51.80;;;;;;5074050;28;20489;-73
2020/12/12 10:20:21;;;;;;;14.88;9.07;;;10.70;51.70;;;;;;5054606;28;20092;-75
2020/12/12 10:22:47;;;;;;;23.30;12.77;;;10.80;51.10;;;;;;5058906;28;20412;-74
2020/12/12 10:25:13;;;;;;;28.63;13.30;;;10.80;51.00;;;;;;5061604;28;20924;-74
2020/12/12 10:27:40;;;;;;;13.52;9.25;;;10.80;51.70;;;;;;5058685;28;20029;-74
2020/12/12 10:30:08;;;;;;;12.50;8.10;;;10.90;50.70;;;;;;5053887;28;20021;-74
2020/12/12 10:32:34;;;;;;;16.73;9.20;;;10.90;50.60;;;;;;5057010;28;20021;-76
2020/12/12 10:35:00;;;;;;;12.65;8.52;;;10.90;50.70;;;;;;5047929;28;20033;-77
2020/12/12 10:37:26;;;;;;;16.80;7.35;;;11.00;50.80;;;;;;5049504;28;20120;-75
2020/12/12 10:42:36;;;;;;;12.43;7.65;;;11.00;50.20;;;;;;5049019;28;20067;-76
2020/12/12 10:45:06;;;;;;;11.63;6.82;;;11.10;50.40;;;;;;5034062;28;20428;-76
2020/12/12 10:47:33;;;;;;;10.75;6.75;;;11.10;49.70;;;;;;5045124;28;20039;-76
2020/12/12 10:49:59;;;;;;;10.10;6.63;;;11.10;49.50;;;;;;5053934;28;20089;-76
2020/12/12 10:52:25;;;;;;;10.57;6.32;;;11.10;49.20;;;;;;5049574;28;20541;-75
2020/12/12 10:54:51;;;;;;;8.70;5.95;;;11.00;49.30;;;;;;5053888;28;20070;-75
2020/12/12 10:57:17;;;;;;;14.75;7.68;;;11.00;49.50;;;;;;5053608;28;20013;-75
2020/12/12 10:59:43;;;;;;;18.27;10.60;;;11.00;49.60;;;;;;5052538;28;20604;-75
2020/12/12 11:02:11;;;;;;;19.85;10.20;;;11.00;49.70;;;;;;5046269;28;20033;-75
2020/12/12 11:04:38;;;;;;;16.40;7.50;;;11.00;49.60;;;;;;5042807;28;20021;-75
2020/12/12 11:07:04;;;;;;;10.30;6.82;;;11.00;49.80;;;;;;5034294;28;20021;-76
2020/12/12 11:09:30;;;;;;;11.60;7.57;;;11.00;49.70;;;;;;5050646;28;20075;-76
2020/12/12 11:11:57;;;;;;;16.20;8.43;;;11.00;49.80;;;;;;5044160;28;20029;-75
2020/12/12 11:14:25;;;;;;;12.10;6.97;;;11.00;49.20;;;;;;5048019;28;20039;-75
2020/12/12 11:16:51;;;;;;;13.98;9.10;;;10.90;49.10;;;;;;5041419;28;20021;-76
2020/12/12 11:19:18;;;;;;;17.27;10.50;;;10.90;48.80;;;;;;5053555;28;20052;-76
2020/12/12 11:21:44;;;;;;;11.63;8.65;;;10.90;48.80;;;;;;5053115;28;20096;-75
2020/12/12 11:24:09;;;;;;;15.93;9.55;;;10.90;49.10;;;;;;5049691;28;20125;-76
2020/12/12 11:26:35;;;;;;;28.27;12.45;;;10.90;49.40;;;;;;5044367;28;20021;-75
2020/12/12 11:29:01;;;;;;;20.15;10.95;;;10.80;49.60;;;;;;5052374;28;20029;-75
2020/12/12 11:31:27;;;;;;;13.32;9.18;;;10.90;49.90;;;;;;5053332;28;20021;-75
2020/12/12 11:34:14;;;;;;;12.20;8.23;;;10.90;49.70;;;;;;5053473;28;20040;-75
2020/12/12 11:47:01;;;;;;;13.32;7.60;;;11.00;48.90;;;;;;5073139;28;20032;-74
2020/12/12 11:49:27;;;;;;;12.63;8.35;;;11.00;49.00;;;;;;5058315;28;20021;-75
2020/12/12 11:51:53;;;;;;;12.93;7.93;;;11.00;49.00;;;;;;5051770;28;20071;-75
2020/12/12 11:54:19;;;;;;;15.82;8.73;;;10.90;49.10;;;;;;5051413;28;20129;-75
2020/12/12 11:56:44;;;;;;;14.50;8.90;;;10.90;49.20;;;;;;5048902;28;20116;-75
2020/12/12 11:59:12;;;;;;;13.50;9.05;;;10.90;49.10;;;;;;5052752;28;20036;-75
2020/12/12 12:01:38;;;;;;;13.50;8.55;;;10.90;49.40;;;;;;5051499;28;20479;-75
2020/12/12 12:04:04;;;;;;;14.80;7.60;;;10.90;49.40;;;;;;5054903;28;20040;-75
2020/12/12 12:06:30;;;;;;;10.05;6.72;;;11.00;49.60;;;;;;5040510;28;20441;-75
2020/12/12 12:09:15;;;;;;;14.07;7.32;;;11.00;50.00;;;;;;5043789;28;20417;-74
2020/12/12 12:11:40;;;;;;;8.07;5.70;;;11.00;49.40;;;;;;5052155;28;20108;-75
2020/12/12 12:14:11;;;;;;;8.98;6.47;;;11.00;49.40;;;;;;5052472;28;20502;-75
2020/12/12 12:16:40;;;;;;;9.73;6.68;;;11.00;49.20;;;;;;5052344;28;20104;-75
2020/12/12 12:19:14;;;;;;;10.32;7.13;;;11.00;49.40;;;;;;5052116;28;20025;-74
2020/12/12 12:21:42;;;;;;;;;;;11.00;48.70;;;;;;5052326;28;20017;-75
2020/12/12 12:24:10;;;;;;;13.07;8.23;;;11.00;49.70;;;;;;5051887;28;19917;-76
2020/12/12 12:26:36;;;;;;;14.15;8.20;;;11.10;49.20;;;;;;5052030;28;20021;-75
2020/12/12 12:29:13;;;;;;;23.17;11.60;;;11.00;49.20;;;;;;5054244;28;20490;-75
2020/12/12 12:31:43;;;;;;;13.18;9.00;;;11.10;49.20;;;;;;5055859;28;20093;-75
2020/12/12 12:34:08;;;;;;;15.63;9.80;;;11.10;49.60;;;;;;5055430;28;20025;-75
2020/12/12 12:36:38;;;;;;;21.02;11.70;;;11.10;49.80;;;;;;5052814;28;20043;-75
2020/12/12 12:39:05;;;;;;;17.35;11.30;;;11.10;49.90;;;;;;5071237;28;20062;-75
2020/12/12 12:41:30;;;;;;;15.75;11.25;;;11.10;49.80;;;;;;5058138;28;20021;-76
2020/12/12 12:44:00;;;;;;;15.90;10.98;;;11.10;49.70;;;;;;5071774;28;20500;-75
2020/12/12 12:46:34;;;;;;;14.20;10.30;;;11.10;49.60;;;;;;5066606;28;20033;-75
2020/12/12 12:49:01;;;;;;;25.65;11.13;;;11.20;49.70;;;;;;5076241;28;20028;-75
2020/12/12 12:51:27;;;;;;;16.48;10.73;;;11.20;49.70;;;;;;5073000;28;20422;-74
2020/12/12 12:53:54;;;;;;;20.23;9.68;;;11.20;49.80;;;;;;5076503;28;20028;-75
2020/12/12 12:56:24;;;;;;;14.45;10.07;;;11.20;49.60;;;;;;5058758;28;20055;-75
2020/12/12 12:58:50;;;;;;;16.33;11.20;;;11.30;49.70;;;;;;5074680;28;20047;-75